createdAt,value
2019-01-23T00:01:09.205Z,23.87
2019-01-23T00:02:13.299Z,23.02
2019-01-23T00:03:17.618Z,23.22
2019-01-23T00:04:21.543Z,23.05
2019-01-23T00:05:25.530Z,22.42
2019-01-23T00:06:29.519Z,23.87
2019-01-23T00:07:33.828Z,23.80
2019-01-23T00:08:37.754Z,24.40
2019-01-23T00:09:41.743Z,23.05
2019-01-23T00:10:45.987Z,24.20
2019-01-23T00:11:50.135Z,23.75
2019-01-23T00:12:54.343Z,25.90
2019-01-23T00:13:58.344Z,24.07
2019-01-23T00:15:02.332Z,26.52
2019-01-23T00:16:06.418Z,28.10
2019-01-23T00:17:10.598Z,25.62
2019-01-23T00:18:14.591Z,27.40
2019-01-23T00:19:18.603Z,26.70
2019-01-23T00:20:22.695Z,26.62
2019-01-23T00:21:26.687Z,26.75
2019-01-23T00:22:30.530Z,26.25
2019-01-23T00:23:34.469Z,27.87
2019-01-23T00:24:38.562Z,26.45
2019-01-23T00:25:43.020Z,26.27
2019-01-23T00:26:47.275Z,25.80
2019-01-23T00:27:51.269Z,26.25
2019-01-23T00:28:55.126Z,24.55
2019-01-23T00:29:58.973Z,22.98
2019-01-23T00:31:02.983Z,26.87
2019-01-23T00:32:07.186Z,25.80
2019-01-23T00:33:11.099Z,25.27
2019-01-23T00:34:15.655Z,25.27
2019-01-23T00:35:19.895Z,26.52
2019-01-23T00:36:23.806Z,27.32
2019-01-23T00:37:27.887Z,25.72
2019-01-23T00:38:32.206Z,25.82
2019-01-23T00:39:36.152Z,26.80
2019-01-23T00:40:40.143Z,24.90
2019-01-23T00:41:44.447Z,25.82
2019-01-23T00:42:48.443Z,25.02
2019-01-23T00:43:52.622Z,26.27
2019-01-23T00:44:56.475Z,26.35
2019-01-23T00:46:00.459Z,25.37
2019-01-23T00:47:04.707Z,22.62
2019-01-23T00:48:08.690Z,26.37
2019-01-23T00:49:12.619Z,25.92
2019-01-23T00:50:16.934Z,24.12
2019-01-23T00:51:20.851Z,27.17
2019-01-23T00:52:24.770Z,26.50
2019-01-23T00:53:29.018Z,26.25
2019-01-23T00:54:33.387Z,22.73
2019-01-23T00:55:37.651Z,25.90
2019-01-23T00:56:41.809Z,25.52
2019-01-23T00:57:46.089Z,26.65
2019-01-23T00:58:49.932Z,25.88
2019-01-23T00:59:54.017Z,26.00
2019-01-23T01:00:58.002Z,26.82
2019-01-23T01:02:01.991Z,25.55
2019-01-23T01:03:06.091Z,25.17
2019-01-23T01:04:10.508Z,26.40
2019-01-23T01:05:15.519Z,25.75
2019-01-23T01:06:19.516Z,25.90
2019-01-23T01:07:23.508Z,25.75
2019-01-23T01:08:27.499Z,26.10
2019-01-23T01:09:31.491Z,26.60
2019-01-23T01:10:35.755Z,25.37
2019-01-23T01:11:39.744Z,26.65
2019-01-23T01:12:43.739Z,26.68
2019-01-23T01:13:47.731Z,26.45
2019-01-23T01:14:51.724Z,26.07
2019-01-23T01:15:55.810Z,25.48
2019-01-23T01:16:59.728Z,27.10
2019-01-23T01:18:03.724Z,26.00
2019-01-23T01:19:07.764Z,27.60
2019-01-23T01:20:12.447Z,26.90
2019-01-23T01:21:16.850Z,26.97
2019-01-23T01:22:20.844Z,27.52
2019-01-23T01:23:24.779Z,26.93
2019-01-23T01:24:29.075Z,27.40
2019-01-23T01:25:33.067Z,27.50
2019-01-23T01:26:36.978Z,27.02
2019-01-23T01:27:40.975Z,25.95
2019-01-23T01:28:44.983Z,25.92
2019-01-23T01:29:49.372Z,27.15
2019-01-23T01:30:53.598Z,26.93
2019-01-23T01:31:57.590Z,26.30
2019-01-23T01:33:01.884Z,25.25
2019-01-23T01:34:06.094Z,25.45
2019-01-23T01:35:10.331Z,26.55
2019-01-23T01:36:14.259Z,25.75
2019-01-23T01:37:18.494Z,25.37
2019-01-23T01:38:23.123Z,24.77
2019-01-23T01:39:27.289Z,25.43
2019-01-23T01:40:31.350Z,25.15
2019-01-23T01:41:35.604Z,23.98
2019-01-23T01:42:39.597Z,25.90
2019-01-23T01:43:43.515Z,25.30
2019-01-23T01:44:47.499Z,25.52
2019-01-23T01:45:51.510Z,26.35
2019-01-23T01:46:55.490Z,25.48
2019-01-23T01:47:59.399Z,27.55
2019-01-23T01:49:03.246Z,27.00
2019-01-23T01:50:10.123Z,25.77
2019-01-23T01:51:14.131Z,24.20
2019-01-23T01:52:17.970Z,25.00
2019-01-23T01:53:21.812Z,25.45
2019-01-23T01:54:25.967Z,25.82
2019-01-23T01:55:29.899Z,25.27
2019-01-23T01:56:34.152Z,24.87
2019-01-23T01:57:38.139Z,25.72
2019-01-23T01:58:42.386Z,24.92
2019-01-23T01:59:46.300Z,25.88
2019-01-23T02:00:50.293Z,26.00
2019-01-23T02:01:54.290Z,25.27
2019-01-23T02:02:58.519Z,26.57
2019-01-23T02:04:03.036Z,24.02
2019-01-23T02:05:07.742Z,26.35
2019-01-23T02:06:11.758Z,26.15
2019-01-23T02:07:15.743Z,25.77
2019-01-23T02:08:19.982Z,26.12
2019-01-23T02:09:23.822Z,25.55
2019-01-23T02:10:28.069Z,26.48
2019-01-23T02:11:31.923Z,27.22
2019-01-23T02:12:35.837Z,27.20
2019-01-23T02:13:39.747Z,27.13
2019-01-23T02:14:43.670Z,26.12
2019-01-23T02:15:47.582Z,24.80
2019-01-23T02:16:51.587Z,25.25
2019-01-23T02:17:55.494Z,25.23
2019-01-23T02:18:59.336Z,25.30
2019-01-23T02:20:03.274Z,25.27
2019-01-23T02:21:07.866Z,25.92
2019-01-23T02:22:11.871Z,26.52
2019-01-23T02:23:15.784Z,25.40
2019-01-23T02:24:19.697Z,26.77
2019-01-23T02:25:23.699Z,26.77
2019-01-23T02:26:27.971Z,25.65
2019-01-23T02:27:32.282Z,26.55
2019-01-23T02:28:36.186Z,26.27
2019-01-23T02:29:40.382Z,27.77
2019-01-23T02:30:44.374Z,28.05
2019-01-23T02:31:48.295Z,29.05
2019-01-23T02:32:52.300Z,27.40
2019-01-23T02:33:56.148Z,25.77
2019-01-23T02:35:00.493Z,26.42
2019-01-23T02:36:04.803Z,27.55
2019-01-23T02:37:09.007Z,26.35
2019-01-23T02:38:13.394Z,26.95
2019-01-23T02:39:17.551Z,26.87
2019-01-23T02:40:22.968Z,27.42
2019-01-23T02:41:26.962Z,27.10
2019-01-23T02:42:30.811Z,26.30
2019-01-23T02:43:35.062Z,27.07
2019-01-23T02:44:39.369Z,28.20
2019-01-23T02:45:43.367Z,26.77
2019-01-23T02:46:47.362Z,27.87
2019-01-23T02:47:51.418Z,28.83
2019-01-23T02:48:55.655Z,28.12
2019-01-23T02:49:59.502Z,27.75
2019-01-23T02:51:03.525Z,28.35
2019-01-23T02:52:07.486Z,26.35
2019-01-23T02:53:11.788Z,26.55
2019-01-23T02:54:15.954Z,26.42
2019-01-23T02:55:20.193Z,26.97
2019-01-23T02:56:24.527Z,26.37
2019-01-23T02:57:28.583Z,27.13
2019-01-23T02:58:32.435Z,28.07
2019-01-23T02:59:36.353Z,27.32
2019-01-23T03:00:40.630Z,27.87
2019-01-23T03:01:44.627Z,28.75
2019-01-23T03:02:50.704Z,28.02
2019-01-23T03:03:54.704Z,28.98
2019-01-23T03:04:58.694Z,28.73
2019-01-23T03:06:02.762Z,24.43
2019-01-23T03:07:06.734Z,28.12
2019-01-23T03:08:11.243Z,26.85
2019-01-23T03:09:15.268Z,26.68
2019-01-23T03:10:21.278Z,26.20
2019-01-23T03:11:25.210Z,27.30
2019-01-23T03:12:29.201Z,26.97
2019-01-23T03:13:33.427Z,26.00
2019-01-23T03:14:37.419Z,27.13
2019-01-23T03:15:41.343Z,26.62
2019-01-23T03:16:45.355Z,26.73
2019-01-23T03:17:49.348Z,26.90
2019-01-23T03:18:53.212Z,27.93
2019-01-23T03:19:57.208Z,24.12
2019-01-23T03:21:01.204Z,26.02
2019-01-23T03:22:05.565Z,26.73
2019-01-23T03:23:09.804Z,25.60
2019-01-23T03:24:13.734Z,25.88
2019-01-23T03:25:18.134Z,26.62
2019-01-23T03:26:22.262Z,25.05
2019-01-23T03:27:26.182Z,26.07
2019-01-23T03:28:30.683Z,23.15
2019-01-23T03:29:34.522Z,25.72
2019-01-23T03:30:38.441Z,26.25
2019-01-23T03:31:42.357Z,26.37
2019-01-23T03:32:46.600Z,24.05
2019-01-23T03:33:50.573Z,26.42
2019-01-23T03:34:55.058Z,25.72
2019-01-23T03:35:59.045Z,25.88
2019-01-23T03:37:02.960Z,26.87
2019-01-23T03:38:06.879Z,25.95
2019-01-23T03:39:11.055Z,27.10
2019-01-23T03:40:17.008Z,25.17
2019-01-23T03:41:21.247Z,25.00
2019-01-23T03:42:25.159Z,25.43
2019-01-23T03:43:29.320Z,25.15
2019-01-23T03:44:33.316Z,26.17
2019-01-23T03:45:37.310Z,25.15
2019-01-23T03:46:41.535Z,25.80
2019-01-23T03:47:45.769Z,27.05
2019-01-23T03:48:50.196Z,25.60
2019-01-23T03:49:54.360Z,24.98
2019-01-23T03:50:58.344Z,25.95
2019-01-23T03:52:02.263Z,25.32
2019-01-23T03:53:06.500Z,25.80
2019-01-23T03:54:10.749Z,26.57
2019-01-23T03:55:15.310Z,25.70
2019-01-23T03:56:19.296Z,26.23
2019-01-23T03:57:23.785Z,26.82
2019-01-23T03:58:27.697Z,26.05
2019-01-23T03:59:32.293Z,25.55
2019-01-23T04:00:36.712Z,26.70
2019-01-23T04:01:40.695Z,27.25
2019-01-23T04:02:44.723Z,26.45
2019-01-23T04:03:48.708Z,26.57
2019-01-23T04:04:52.574Z,27.22
2019-01-23T04:05:56.488Z,26.60
2019-01-23T04:07:00.656Z,26.10
2019-01-23T04:08:04.639Z,25.32
2019-01-23T04:09:09.022Z,25.32
2019-01-23T04:10:14.604Z,26.85
2019-01-23T04:11:18.635Z,25.65
2019-01-23T04:12:22.622Z,26.20
2019-01-23T04:13:26.614Z,26.87
2019-01-23T04:14:30.544Z,24.70
2019-01-23T04:15:34.804Z,20.90
2019-01-23T04:16:38.786Z,25.20
2019-01-23T04:17:43.115Z,24.80
2019-01-23T04:18:47.030Z,25.50
2019-01-23T04:19:50.960Z,26.42
2019-01-23T04:20:54.959Z,26.77
2019-01-23T04:21:59.022Z,27.17
2019-01-23T04:23:03.326Z,26.70
2019-01-23T04:24:07.482Z,27.52
2019-01-23T04:25:12.155Z,26.25
2019-01-23T04:26:16.333Z,28.45
2019-01-23T04:27:20.247Z,25.88
2019-01-23T04:28:24.500Z,26.73
2019-01-23T04:29:28.411Z,25.72
2019-01-23T04:30:32.963Z,26.07
2019-01-23T04:31:36.884Z,27.30
2019-01-23T04:32:40.802Z,27.55
2019-01-23T04:33:44.774Z,26.27
2019-01-23T04:34:48.615Z,24.67
2019-01-23T04:35:52.838Z,26.50
2019-01-23T04:36:57.181Z,25.45
2019-01-23T04:38:01.113Z,26.07
2019-01-23T04:39:07.900Z,25.72
2019-01-23T04:40:12.300Z,25.12
2019-01-23T04:41:16.559Z,25.68
2019-01-23T04:42:20.557Z,25.60
2019-01-23T04:43:24.558Z,25.15
2019-01-23T04:44:28.480Z,27.05
2019-01-23T04:45:32.492Z,24.72
2019-01-23T04:46:36.487Z,25.05
2019-01-23T04:47:40.869Z,25.08
2019-01-23T04:48:44.790Z,24.30
2019-01-23T04:49:48.714Z,25.17
2019-01-23T04:51:20.880Z,25.45
2019-01-23T04:52:39.302Z,23.12
2019-01-23T04:53:45.291Z,25.57
2019-01-23T04:54:49.420Z,25.00
2019-01-23T04:55:53.696Z,25.12
2019-01-23T04:56:57.868Z,25.97
2019-01-23T04:58:01.706Z,25.70
2019-01-23T04:59:05.618Z,24.43
2019-01-23T05:00:11.823Z,24.23
2019-01-23T05:01:15.829Z,24.50
2019-01-23T05:02:20.144Z,25.02
2019-01-23T05:03:24.505Z,26.23
2019-01-23T05:04:28.834Z,25.57
2019-01-23T05:05:32.909Z,24.15
2019-01-23T05:06:37.428Z,24.63
2019-01-23T05:07:41.407Z,26.25
2019-01-23T05:08:45.737Z,25.10
2019-01-23T05:09:49.654Z,25.88
2019-01-23T05:10:53.579Z,25.55
2019-01-23T05:11:57.563Z,25.10
2019-01-23T05:13:01.664Z,25.88
2019-01-23T05:14:05.923Z,26.90
2019-01-23T05:15:09.932Z,24.55
2019-01-23T05:16:13.931Z,26.23
2019-01-23T05:17:17.849Z,25.72
2019-01-23T05:18:22.086Z,25.48
2019-01-23T05:19:25.999Z,25.27
2019-01-23T05:20:30.425Z,24.52
2019-01-23T05:21:34.344Z,25.05
2019-01-23T05:22:38.628Z,25.27
2019-01-23T05:23:42.541Z,24.67
2019-01-23T05:24:46.466Z,24.55
2019-01-23T05:25:50.489Z,25.35
2019-01-23T05:26:54.486Z,26.42
2019-01-23T05:27:58.407Z,25.37
2019-01-23T05:29:02.555Z,26.12
2019-01-23T05:30:09.046Z,26.23
2019-01-23T05:31:13.127Z,26.80
2019-01-23T05:32:17.443Z,26.35
2019-01-23T05:33:21.457Z,26.40
2019-01-23T05:34:25.956Z,25.80
2019-01-23T05:35:29.948Z,27.20
2019-01-23T05:36:33.952Z,25.75
2019-01-23T05:37:37.936Z,27.20
2019-01-23T05:38:41.847Z,26.87
2019-01-23T05:39:45.690Z,26.85
2019-01-23T05:40:49.993Z,26.87
2019-01-23T05:41:53.815Z,25.85
2019-01-23T05:42:57.803Z,26.40
2019-01-23T05:44:01.965Z,27.15
2019-01-23T05:45:06.488Z,27.70
2019-01-23T05:46:10.547Z,27.25
2019-01-23T05:47:14.553Z,27.55
2019-01-23T05:48:18.684Z,26.48
2019-01-23T05:49:22.605Z,27.75
2019-01-23T05:50:26.595Z,27.40
2019-01-23T05:51:30.600Z,27.93
2019-01-23T05:52:34.592Z,28.10
2019-01-23T05:53:38.502Z,27.48
2019-01-23T05:54:42.688Z,27.20
2019-01-23T05:55:46.601Z,27.17
2019-01-23T05:56:50.790Z,29.12
2019-01-23T05:57:54.948Z,28.32
2019-01-23T05:58:59.155Z,29.30
2019-01-23T06:00:03.226Z,27.90
2019-01-23T06:01:07.234Z,27.42
2019-01-23T06:02:11.237Z,27.30
2019-01-23T06:03:15.175Z,29.12
2019-01-23T06:04:19.163Z,28.42
2019-01-23T06:05:23.157Z,28.40
2019-01-23T06:06:28.035Z,27.20
2019-01-23T06:07:32.406Z,30.68
2019-01-23T06:08:36.604Z,27.02
2019-01-23T06:09:40.852Z,28.65
2019-01-23T06:10:44.917Z,28.90
2019-01-23T06:11:49.270Z,29.52
2019-01-23T06:12:53.250Z,28.92
2019-01-23T06:13:57.214Z,28.10
2019-01-23T06:15:01.374Z,27.52
2019-01-23T06:16:05.623Z,27.80
2019-01-23T06:17:09.806Z,27.27
2019-01-23T06:18:13.872Z,28.75
2019-01-23T06:19:17.867Z,26.80
2019-01-23T06:20:22.289Z,28.02
2019-01-23T06:21:26.418Z,23.98
2019-01-23T06:22:30.708Z,27.02
2019-01-23T06:23:34.700Z,26.50
2019-01-23T06:24:39.275Z,26.30
2019-01-23T06:25:43.562Z,25.45
2019-01-23T06:26:48.396Z,25.95
2019-01-23T06:27:52.418Z,26.77
2019-01-23T06:28:56.347Z,26.68
2019-01-23T06:30:00.691Z,26.93
2019-01-23T06:31:04.690Z,27.70
2019-01-23T06:32:08.983Z,25.45
2019-01-23T06:33:13.275Z,27.90
2019-01-23T06:34:17.540Z,25.50
2019-01-23T06:35:21.535Z,25.80
2019-01-23T06:36:26.097Z,27.95
2019-01-23T06:37:30.386Z,26.85
2019-01-23T06:38:34.561Z,25.55
2019-01-23T06:39:38.524Z,26.77
2019-01-23T06:40:42.635Z,26.33
2019-01-23T06:41:46.633Z,25.88
2019-01-23T06:42:50.642Z,25.82
2019-01-23T06:43:54.509Z,26.48
2019-01-23T06:44:58.577Z,25.72
2019-01-23T06:46:02.608Z,27.40
2019-01-23T06:47:06.553Z,26.25
2019-01-23T06:48:10.923Z,27.27
2019-01-23T06:49:14.951Z,27.32
2019-01-23T06:50:20.670Z,28.15
2019-01-23T06:51:24.977Z,23.15
2019-01-23T06:52:28.906Z,28.90
2019-01-23T06:53:32.828Z,28.90
2019-01-23T06:54:36.824Z,26.50
2019-01-23T06:55:40.817Z,25.15
2019-01-23T06:56:45.083Z,24.02
2019-01-23T06:57:49.469Z,26.20
2019-01-23T06:58:53.459Z,26.02
2019-01-23T06:59:57.699Z,26.25
2019-01-23T07:01:01.931Z,26.68
2019-01-23T07:02:05.915Z,28.60
2019-01-23T07:03:09.916Z,28.07
2019-01-23T07:04:13.832Z,31.93
2019-01-23T07:05:18.076Z,30.97
2019-01-23T07:06:22.563Z,28.32
2019-01-23T07:07:26.481Z,29.60
2019-01-23T07:08:30.454Z,27.22
2019-01-23T07:09:34.323Z,28.47
2019-01-23T07:10:38.311Z,28.55
2019-01-23T07:11:42.318Z,28.05
2019-01-23T07:12:46.254Z,27.30
2019-01-23T07:13:50.183Z,26.50
2019-01-23T07:14:54.348Z,26.12
2019-01-23T07:15:58.588Z,26.00
2019-01-23T07:17:02.578Z,25.50
2019-01-23T07:18:06.577Z,25.57
2019-01-23T07:19:10.575Z,26.07
2019-01-23T07:20:17.121Z,26.30
2019-01-23T07:21:21.034Z,26.05
2019-01-23T07:22:25.303Z,28.00
2019-01-23T07:23:29.347Z,27.50
2019-01-23T07:24:33.261Z,26.17
2019-01-23T07:25:37.327Z,27.75
2019-01-23T07:26:41.394Z,28.10
2019-01-23T07:27:45.921Z,27.30
2019-01-23T07:28:49.842Z,27.05
2019-01-23T07:29:53.774Z,28.65
2019-01-23T07:30:57.697Z,29.10
2019-01-23T07:32:01.778Z,29.82
2019-01-23T07:33:05.863Z,30.12
2019-01-23T07:34:09.819Z,29.48
2019-01-23T07:35:13.887Z,31.52
2019-01-23T07:36:17.736Z,32.48
2019-01-23T07:37:21.661Z,29.37
2019-01-23T07:38:25.895Z,29.10
2019-01-23T07:39:30.134Z,31.02
2019-01-23T07:40:34.174Z,28.10
2019-01-23T07:41:38.351Z,27.93
2019-01-23T07:42:42.398Z,28.90
2019-01-23T07:43:46.602Z,28.75
2019-01-23T07:44:50.473Z,28.57
2019-01-23T07:45:54.458Z,35.00
2019-01-23T07:46:58.866Z,27.98
2019-01-23T07:48:02.870Z,24.23
2019-01-23T07:49:07.068Z,26.02
2019-01-23T07:50:12.043Z,21.57
2019-01-23T07:51:15.966Z,26.12
2019-01-23T07:52:19.893Z,27.50
2019-01-23T07:53:23.879Z,26.68
2019-01-23T07:54:28.091Z,26.77
2019-01-23T07:55:32.088Z,29.90
2019-01-23T07:56:36.087Z,27.40
2019-01-23T07:57:40.082Z,26.00
2019-01-23T07:58:44.011Z,30.95
2019-01-23T07:59:47.929Z,28.23
2019-01-23T08:00:52.506Z,28.12
2019-01-23T08:01:56.598Z,26.42
2019-01-23T08:03:00.560Z,27.67
2019-01-23T08:04:04.552Z,27.55
2019-01-23T08:05:10.285Z,28.57
2019-01-23T08:06:14.278Z,23.80
2019-01-23T08:07:18.278Z,25.88
2019-01-23T08:08:22.459Z,28.25
2019-01-23T08:09:26.345Z,26.07
2019-01-23T08:10:30.415Z,30.55
2019-01-23T08:11:34.415Z,30.27
2019-01-23T08:12:38.773Z,28.95
2019-01-23T08:13:42.847Z,27.22
2019-01-23T08:14:47.387Z,27.02
2019-01-23T08:15:51.329Z,31.17
2019-01-23T08:16:55.380Z,28.35
2019-01-23T08:17:59.655Z,28.47
2019-01-23T08:19:04.008Z,32.23
2019-01-23T08:20:10.391Z,38.45
2019-01-23T08:21:14.723Z,31.02
2019-01-23T08:22:19.078Z,24.32
2019-01-23T08:23:23.070Z,30.48
2019-01-23T08:24:27.072Z,28.20
2019-01-23T08:25:31.699Z,30.30
2019-01-23T08:26:35.676Z,30.30
2019-01-23T08:27:39.509Z,29.75
2019-01-23T08:28:43.339Z,30.08
2019-01-23T08:29:47.321Z,28.57
2019-01-23T08:30:51.500Z,28.32
2019-01-23T08:31:55.858Z,28.07
2019-01-23T08:32:59.847Z,29.60
2019-01-23T08:34:03.826Z,30.77
2019-01-23T08:35:08.932Z,30.43
2019-01-23T08:36:13.154Z,31.27
2019-01-23T08:37:17.391Z,26.62
2019-01-23T08:38:21.620Z,31.37
2019-01-23T08:39:25.947Z,31.02
2019-01-23T08:40:29.935Z,30.77
2019-01-23T08:41:34.330Z,32.15
2019-01-23T08:42:38.565Z,31.82
2019-01-23T08:43:42.899Z,31.95
2019-01-23T08:44:46.914Z,30.82
2019-01-23T08:45:50.803Z,30.75
2019-01-23T08:46:54.709Z,29.77
2019-01-23T08:47:58.944Z,29.00
2019-01-23T08:49:03.358Z,29.67
2019-01-23T08:50:15.481Z,32.73
2019-01-23T08:51:19.410Z,46.63
2019-01-23T08:52:23.824Z,35.78
2019-01-23T08:53:28.067Z,31.27
2019-01-23T08:54:31.972Z,30.25
2019-01-23T08:55:35.899Z,37.03
2019-01-23T08:56:40.591Z,28.67
2019-01-23T08:57:44.591Z,34.40
2019-01-23T08:58:48.786Z,34.98
2019-01-23T08:59:52.919Z,29.05
2019-01-23T09:00:56.903Z,34.00
2019-01-23T09:02:01.399Z,37.45
2019-01-23T09:03:06.426Z,38.70
2019-01-23T09:04:10.342Z,37.05
2019-01-23T09:05:14.895Z,40.15
2019-01-23T09:06:19.420Z,36.48
2019-01-23T09:07:23.871Z,34.23
2019-01-23T09:08:28.016Z,35.33
2019-01-23T09:09:32.272Z,41.65
2019-01-23T09:10:36.533Z,44.15
2019-01-23T09:11:40.541Z,38.85
2019-01-23T09:12:45.150Z,42.73
2019-01-23T09:13:49.052Z,39.60
2019-01-23T09:14:53.149Z,35.23
2019-01-23T09:15:57.191Z,29.67
2019-01-23T09:17:01.169Z,28.42
2019-01-23T09:18:07.057Z,29.70
2019-01-23T09:19:11.220Z,31.15
2019-01-23T09:20:16.229Z,34.00
2019-01-23T09:21:20.155Z,34.80
2019-01-23T09:22:24.027Z,30.88
2019-01-23T09:23:28.020Z,25.82
2019-01-23T09:24:31.936Z,36.65
2019-01-23T09:25:36.533Z,30.85
2019-01-23T09:26:40.742Z,43.23
2019-01-23T09:27:44.668Z,31.65
2019-01-23T09:28:48.896Z,30.55
2019-01-23T09:29:53.132Z,41.65
2019-01-23T09:31:53.821Z,41.75
2019-01-23T09:33:10.690Z,39.15
2019-01-23T09:35:08.071Z,41.08
2019-01-23T09:36:41.223Z,31.82
2019-01-23T09:38:17.191Z,31.02
2019-01-23T09:40:00.918Z,30.52
2019-01-23T09:41:23.615Z,30.68
2019-01-23T09:43:08.732Z,32.33
2019-01-23T09:44:53.976Z,31.25
2019-01-23T09:46:48.372Z,38.33
2019-01-23T09:48:26.458Z,33.75
2019-01-23T09:50:20.298Z,34.05
2019-01-23T09:52:21.146Z,35.15
2019-01-23T09:53:32.827Z,34.92
2019-01-23T09:54:37.163Z,37.15
2019-01-23T09:55:42.084Z,42.05
2019-01-23T09:56:48.644Z,37.15
2019-01-23T09:57:58.196Z,32.45
2019-01-23T09:59:02.901Z,22.30
2019-01-23T10:00:09.963Z,35.52
2019-01-23T10:01:13.960Z,52.45
2019-01-23T10:02:18.527Z,40.52
2019-01-23T10:03:23.063Z,42.23
2019-01-23T10:04:27.271Z,35.43
2019-01-23T10:05:31.548Z,34.30
2019-01-23T10:06:35.786Z,32.95
2019-01-23T10:07:40.422Z,33.92
2019-01-23T10:08:44.634Z,36.08
2019-01-23T10:09:48.619Z,39.67
2019-01-23T10:10:52.868Z,39.88
2019-01-23T10:11:56.863Z,46.28
2019-01-23T10:13:00.858Z,38.58
2019-01-23T10:14:04.969Z,33.02
2019-01-23T10:15:13.260Z,35.10
2019-01-23T10:16:19.292Z,35.30
2019-01-23T10:17:23.230Z,35.25
2019-01-23T10:18:27.468Z,36.58
2019-01-23T10:19:31.306Z,35.43
2019-01-23T10:20:35.298Z,34.90
2019-01-23T10:21:39.534Z,33.60
2019-01-23T10:22:43.539Z,34.95
2019-01-23T10:23:47.445Z,36.17
2019-01-23T10:24:51.361Z,36.15
2019-01-23T10:25:55.217Z,35.05
2019-01-23T10:26:59.449Z,35.80
2019-01-23T10:28:03.693Z,35.98
2019-01-23T10:29:07.601Z,37.90
2019-01-23T10:30:12.367Z,36.17
2019-01-23T10:31:16.354Z,32.13
2019-01-23T10:32:20.433Z,32.73
2019-01-23T10:33:24.359Z,30.20
2019-01-23T10:34:28.274Z,30.88
2019-01-23T10:35:32.184Z,34.13
2019-01-23T10:36:36.099Z,34.85
2019-01-23T10:37:40.087Z,31.17
2019-01-23T10:38:44.266Z,29.72
2019-01-23T10:39:48.431Z,29.27
2019-01-23T10:40:52.418Z,34.58
2019-01-23T10:41:56.579Z,33.05
2019-01-23T10:43:01.063Z,34.48
2019-01-23T10:44:05.091Z,32.63
2019-01-23T10:45:10.428Z,34.80
2019-01-23T10:46:14.416Z,34.48
2019-01-23T10:47:18.334Z,35.58
2019-01-23T10:48:22.203Z,35.33
2019-01-23T10:49:26.689Z,34.55
2019-01-23T10:50:30.601Z,35.08
2019-01-23T10:51:34.841Z,37.08
2019-01-23T10:52:39.018Z,34.05
2019-01-23T10:53:43.010Z,35.73
2019-01-23T10:54:46.851Z,35.23
2019-01-23T10:55:50.835Z,34.27
2019-01-23T10:56:54.921Z,33.78
2019-01-23T10:57:59.184Z,35.88
2019-01-23T10:59:03.183Z,34.83
2019-01-23T11:00:10.851Z,37.42
2019-01-23T11:01:14.845Z,65.45
2019-01-23T11:02:18.760Z,35.30
2019-01-23T11:03:23.004Z,285.22
2019-01-23T11:04:27.012Z,307.35
2019-01-23T11:05:31.010Z,70.97
2019-01-23T11:06:35.200Z,58.48
2019-01-23T11:07:39.115Z,44.58
2019-01-23T11:08:43.061Z,40.65
2019-01-23T11:09:47.054Z,39.83
2019-01-23T11:10:50.962Z,35.88
2019-01-23T11:11:54.952Z,48.08
2019-01-23T11:12:58.876Z,51.05
2019-01-23T11:14:03.065Z,37.35
2019-01-23T11:15:07.278Z,34.58
2019-01-23T11:16:11.195Z,33.80
2019-01-23T11:17:15.190Z,33.20
2019-01-23T11:18:19.566Z,33.23
2019-01-23T11:19:23.581Z,33.15
2019-01-23T11:20:27.575Z,32.33
2019-01-23T11:21:31.569Z,32.58
2019-01-23T11:22:35.883Z,32.53
2019-01-23T11:23:40.103Z,32.60
2019-01-23T11:24:44.566Z,35.80
2019-01-23T11:25:48.515Z,34.67
2019-01-23T11:26:52.433Z,35.38
2019-01-23T11:27:56.772Z,33.70
2019-01-23T11:29:00.754Z,32.33
2019-01-23T11:30:06.544Z,32.78
2019-01-23T11:31:10.536Z,32.83
2019-01-23T11:32:14.382Z,34.92
2019-01-23T11:33:18.279Z,33.45
2019-01-23T11:34:22.870Z,30.50
2019-01-23T11:35:26.870Z,32.85
2019-01-23T11:36:30.859Z,32.50
2019-01-23T11:37:34.859Z,33.90
2019-01-23T11:38:39.131Z,33.30
2019-01-23T11:39:43.067Z,33.28
2019-01-23T11:40:47.744Z,34.00
2019-01-23T11:41:51.739Z,34.48
2019-01-23T11:42:55.665Z,33.67
2019-01-23T11:43:59.959Z,34.40
2019-01-23T11:45:04.855Z,36.42
2019-01-23T11:46:09.287Z,34.85
2019-01-23T11:47:13.206Z,34.60
2019-01-23T11:48:17.127Z,33.28
2019-01-23T11:49:21.463Z,33.45
2019-01-23T11:50:25.876Z,32.85
2019-01-23T11:51:29.987Z,32.17
2019-01-23T11:52:33.915Z,31.20
2019-01-23T11:53:38.581Z,30.80
2019-01-23T11:54:42.830Z,31.93
2019-01-23T11:55:47.041Z,30.17
2019-01-23T11:56:51.136Z,30.48
2019-01-23T11:57:55.056Z,32.05
2019-01-23T11:58:59.422Z,32.38
2019-01-23T12:00:03.967Z,32.83
2019-01-23T12:01:08.374Z,32.50
2019-01-23T12:02:12.783Z,32.83
2019-01-23T12:03:20.827Z,33.28
2019-01-23T12:04:22.668Z,33.92
2019-01-23T12:05:26.670Z,33.00
2019-01-23T12:06:30.666Z,32.42
2019-01-23T12:07:34.659Z,32.80
2019-01-23T12:08:38.655Z,34.03
2019-01-23T12:09:43.043Z,32.83
2019-01-23T12:10:46.977Z,31.62
2019-01-23T12:11:51.251Z,31.40
2019-01-23T12:12:55.313Z,33.60
2019-01-23T12:13:59.455Z,31.77
2019-01-23T12:15:03.522Z,32.90
2019-01-23T12:16:07.869Z,18.90
2019-01-23T12:17:12.195Z,31.05
2019-01-23T12:18:16.192Z,32.48
2019-01-23T12:19:20.093Z,33.20
2019-01-23T12:20:24.095Z,32.15
2019-01-23T12:21:28.796Z,30.92
2019-01-23T12:22:32.723Z,31.70
2019-01-23T12:23:37.001Z,32.33
2019-01-23T12:24:41.411Z,33.00
2019-01-23T12:25:45.719Z,31.87
2019-01-23T12:26:50.335Z,32.42
2019-01-23T12:27:54.339Z,34.03
2019-01-23T12:28:58.289Z,33.78
2019-01-23T12:30:02.651Z,34.50
2019-01-23T12:31:07.022Z,36.75
2019-01-23T12:32:11.027Z,36.48
2019-01-23T12:33:15.366Z,36.75
2019-01-23T12:34:19.672Z,36.30
2019-01-23T12:35:23.671Z,32.30
2019-01-23T12:36:27.675Z,33.58
2019-01-23T12:37:31.596Z,34.53
2019-01-23T12:38:35.630Z,33.10
2019-01-23T12:39:39.551Z,32.80
2019-01-23T12:40:43.765Z,35.43
2019-01-23T12:41:47.788Z,32.55
2019-01-23T12:42:51.881Z,33.15
2019-01-23T12:43:55.943Z,32.13
2019-01-23T12:45:00.008Z,33.55
2019-01-23T12:46:04.498Z,33.50
2019-01-23T12:47:08.912Z,33.15
2019-01-23T12:48:12.946Z,30.88
2019-01-23T12:49:17.219Z,32.50
2019-01-23T12:50:27.046Z,33.63
2019-01-23T12:51:31.051Z,33.23
2019-01-23T12:52:35.539Z,31.62
2019-01-23T12:53:39.703Z,33.28
2019-01-23T12:54:43.615Z,33.70
2019-01-23T12:55:47.897Z,32.38
2019-01-23T12:56:52.170Z,34.75
2019-01-23T12:57:56.910Z,32.17
2019-01-23T12:59:00.798Z,35.23
2019-01-23T13:00:06.626Z,33.38
2019-01-23T13:01:10.610Z,33.02
2019-01-23T13:02:14.851Z,28.77
2019-01-23T13:03:19.394Z,33.65
2019-01-23T13:04:23.423Z,35.65
2019-01-23T13:05:27.679Z,34.75
2019-01-23T13:06:32.027Z,33.53
2019-01-23T13:07:36.028Z,34.15
2019-01-23T13:08:40.191Z,31.93
2019-01-23T13:09:44.109Z,33.10
2019-01-23T13:10:48.107Z,36.53
2019-01-23T13:11:52.106Z,35.28
2019-01-23T13:12:56.558Z,37.00
2019-01-23T13:14:01.387Z,34.85
2019-01-23T13:15:06.144Z,30.52
2019-01-23T13:16:10.301Z,33.38
2019-01-23T13:17:14.211Z,23.70
2019-01-23T13:18:18.148Z,32.63
2019-01-23T13:19:22.662Z,32.28
2019-01-23T13:20:26.958Z,32.38
2019-01-23T13:21:31.058Z,36.20
2019-01-23T13:22:35.424Z,33.85
2019-01-23T13:23:39.586Z,34.78
2019-01-23T13:24:43.495Z,33.25
2019-01-23T13:25:47.493Z,34.20
2019-01-23T13:26:51.718Z,23.40
2019-01-23T13:27:57.288Z,30.88
2019-01-23T13:29:01.323Z,30.72
2019-01-23T13:30:06.676Z,31.97
2019-01-23T13:31:10.600Z,34.48
2019-01-23T13:32:14.547Z,35.17
2019-01-23T13:33:18.847Z,29.60
2019-01-23T13:34:22.784Z,38.10
2019-01-23T13:35:29.590Z,35.30
2019-01-23T13:36:33.512Z,37.05
2019-01-23T13:37:37.436Z,34.70
2019-01-23T13:38:41.375Z,35.95
2019-01-23T13:39:45.295Z,35.25
2019-01-23T13:40:49.490Z,27.27
2019-01-23T13:41:53.742Z,23.02
2019-01-23T13:42:58.043Z,31.85
2019-01-23T13:44:02.045Z,33.38
2019-01-23T13:45:06.381Z,23.95
2019-01-23T13:46:10.383Z,25.37
2019-01-23T13:47:14.304Z,35.33
2019-01-23T13:48:18.308Z,38.38
2019-01-23T13:49:22.567Z,39.60
2019-01-23T13:50:26.776Z,38.88
2019-01-23T13:51:30.778Z,38.40
2019-01-23T13:52:34.775Z,35.70
2019-01-23T13:53:38.710Z,37.50
2019-01-23T13:54:42.985Z,38.98
2019-01-23T13:55:47.346Z,30.05
2019-01-23T13:56:51.593Z,31.87